createdAt,value
2022-09-15T00:00:02.000Z,95
2022-09-15T00:01:28.000Z,95
2022-09-15T00:03:34.000Z,95
2022-09-15T00:05:01.000Z,95
2022-09-15T00:07:07.000Z,95
2022-09-15T00:08:33.000Z,95
2022-09-15T00:10:40.000Z,95
2022-09-15T00:12:06.000Z,95
2022-09-15T00:14:12.000Z,95
2022-09-15T00:15:39.000Z,95
2022-09-15T00:17:45.000Z,95
2022-09-15T00:19:11.000Z,95
2022-09-15T00:21:17.000Z,95
2022-09-15T00:22:44.000Z,95
2022-09-15T00:24:50.000Z,95
2022-09-15T00:26:16.000Z,95
2022-09-15T00:28:23.000Z,95
2022-09-15T00:29:49.000Z,95
2022-09-15T00:31:55.000Z,95
2022-09-15T00:33:22.000Z,95
2022-09-15T00:35:28.000Z,95
2022-09-15T00:38:19.000Z,95
2022-09-15T00:39:46.000Z,95
2022-09-15T00:41:52.000Z,95
2022-09-15T00:43:18.000Z,95
2022-09-15T00:45:24.000Z,95
2022-09-15T00:46:51.000Z,95
2022-09-15T00:49:21.000Z,95
2022-09-15T00:50:47.000Z,95
2022-09-15T00:52:53.000Z,95
2022-09-15T00:54:20.000Z,95
2022-09-15T00:56:26.000Z,95
2022-09-15T00:57:53.000Z,94
2022-09-15T00:59:59.000Z,94
2022-09-15T01:01:25.000Z,94
2022-09-15T01:03:31.000Z,94
2022-09-15T01:04:58.000Z,94
2022-09-15T01:07:04.000Z,94
2022-09-15T01:08:31.000Z,95
2022-09-15T01:10:37.000Z,94
2022-09-15T01:12:04.000Z,94
2022-09-15T01:14:10.000Z,94
2022-09-15T01:17:01.000Z,94
2022-09-15T01:18:27.000Z,94
2022-09-15T01:20:34.000Z,94
2022-09-15T01:22:00.000Z,94
2022-09-15T01:24:06.000Z,94
2022-09-15T01:25:33.000Z,94
2022-09-15T01:27:39.000Z,94
2022-09-15T01:29:09.000Z,94
2022-09-15T01:31:15.000Z,94
2022-09-15T01:32:42.000Z,94
2022-09-15T01:34:48.000Z,94
2022-09-15T01:36:14.000Z,94
2022-09-15T01:38:20.000Z,94
2022-09-15T01:39:47.000Z,94
2022-09-15T01:41:53.000Z,94
2022-09-15T01:43:20.000Z,94
2022-09-15T01:45:26.000Z,94
2022-09-15T01:46:52.000Z,94
2022-09-15T01:48:58.000Z,93
2022-09-15T01:50:25.000Z,93
2022-09-15T01:52:31.000Z,93
2022-09-15T01:55:22.000Z,93
2022-09-15T01:56:49.000Z,93
2022-09-15T01:58:55.000Z,93
2022-09-15T02:00:22.000Z,93
2022-09-15T02:02:28.000Z,93
2022-09-15T02:03:54.000Z,93
2022-09-15T02:06:00.000Z,93
2022-09-15T02:07:27.000Z,93
2022-09-15T02:09:33.000Z,93
2022-09-15T02:10:59.000Z,93
2022-09-15T02:13:05.000Z,93
2022-09-15T02:14:32.000Z,93
2022-09-15T02:16:38.000Z,93
2022-09-15T02:18:05.000Z,93
2022-09-15T02:20:11.000Z,93
2022-09-15T02:21:37.000Z,93
2022-09-15T02:23:44.000Z,93
2022-09-15T02:25:10.000Z,93
2022-09-15T02:27:16.000Z,93
2022-09-15T02:28:43.000Z,93
2022-09-15T02:30:49.000Z,93
2022-09-15T02:33:40.000Z,93
2022-09-15T02:35:07.000Z,93
2022-09-15T02:37:13.000Z,93
2022-09-15T02:38:39.000Z,93
2022-09-15T02:40:46.000Z,93
2022-09-15T02:42:12.000Z,92
2022-09-15T02:44:18.000Z,92
2022-09-15T02:45:45.000Z,92
2022-09-15T02:47:51.000Z,92
2022-09-15T02:49:17.000Z,92
2022-09-15T02:51:23.000Z,92
2022-09-15T02:52:50.000Z,92
2022-09-15T02:54:56.000Z,92
2022-09-15T02:56:22.000Z,92
2022-09-15T02:58:28.000Z,92
2022-09-15T02:59:55.000Z,92
2022-09-15T03:02:01.000Z,92
2022-09-15T03:03:28.000Z,92
2022-09-15T03:05:34.000Z,92
2022-09-15T03:07:00.000Z,92
2022-09-15T03:09:06.000Z,92
2022-09-15T03:11:57.000Z,92
2022-09-15T03:13:24.000Z,92
2022-09-15T03:15:30.000Z,92
2022-09-15T03:16:57.000Z,93
2022-09-15T03:19:03.000Z,93
2022-09-15T03:20:29.000Z,93
2022-09-15T03:22:35.000Z,92
2022-09-15T03:24:02.000Z,92
2022-09-15T03:26:08.000Z,92
2022-09-15T03:27:34.000Z,93
2022-09-15T03:29:40.000Z,92
2022-09-15T03:31:07.000Z,92
2022-09-15T03:33:13.000Z,93
2022-09-15T03:34:40.000Z,92
2022-09-15T03:36:46.000Z,92
2022-09-15T03:38:12.000Z,93
2022-09-15T03:40:18.000Z,93
2022-09-15T03:41:45.000Z,93
2022-09-15T03:43:51.000Z,93
2022-09-15T03:45:18.000Z,93
2022-09-15T03:47:24.000Z,93
2022-09-15T03:50:15.000Z,93
2022-09-15T03:51:42.000Z,93
2022-09-15T03:53:48.000Z,93
2022-09-15T03:55:14.000Z,93
2022-09-15T03:57:20.000Z,93
2022-09-15T03:58:47.000Z,93
2022-09-15T04:00:53.000Z,93
2022-09-15T04:02:19.000Z,93
2022-09-15T04:04:26.000Z,93
2022-09-15T04:05:52.000Z,93
2022-09-15T04:07:58.000Z,93
2022-09-15T04:09:25.000Z,93
2022-09-15T04:11:31.000Z,93
2022-09-15T04:12:57.000Z,93
2022-09-15T04:15:03.000Z,93
2022-09-15T04:16:30.000Z,93
2022-09-15T04:18:36.000Z,93
2022-09-15T04:20:03.000Z,93
2022-09-15T04:22:09.000Z,93
2022-09-15T04:23:35.000Z,94
2022-09-15T04:25:42.000Z,93
2022-09-15T04:28:33.000Z,93
2022-09-15T04:29:59.000Z,94
2022-09-15T04:32:05.000Z,94
2022-09-15T04:33:32.000Z,94
2022-09-15T04:35:38.000Z,94
2022-09-15T04:37:04.000Z,93
2022-09-15T04:39:10.000Z,93
2022-09-15T04:40:37.000Z,93
2022-09-15T04:42:43.000Z,93
2022-09-15T04:44:10.000Z,93
2022-09-15T04:46:16.000Z,93
2022-09-15T04:47:42.000Z,93
2022-09-15T04:49:48.000Z,93
2022-09-15T04:51:15.000Z,93
2022-09-15T04:53:21.000Z,93
2022-09-15T04:54:47.000Z,93
2022-09-15T04:56:54.000Z,92
2022-09-15T04:58:20.000Z,93
2022-09-15T05:00:26.000Z,92
2022-09-15T05:01:53.000Z,93
2022-09-15T05:03:59.000Z,93
2022-09-15T05:06:50.000Z,93
2022-09-15T05:08:17.000Z,92
2022-09-15T05:10:23.000Z,92
2022-09-15T05:11:49.000Z,92
2022-09-15T05:13:56.000Z,92
2022-09-15T05:15:22.000Z,92
2022-09-15T05:17:28.000Z,92
2022-09-15T05:18:55.000Z,92
2022-09-15T05:21:01.000Z,93
2022-09-15T05:22:27.000Z,92
2022-09-15T05:24:33.000Z,91
2022-09-15T05:26:00.000Z,91
2022-09-15T05:28:06.000Z,92
2022-09-15T05:29:32.000Z,92
2022-09-15T05:31:39.000Z,91
2022-09-15T05:33:06.000Z,91
2022-09-15T05:35:12.000Z,91
2022-09-15T05:36:38.000Z,91
2022-09-15T05:38:44.000Z,91
2022-09-15T05:40:11.000Z,90
2022-09-15T05:42:17.000Z,91
2022-09-15T05:45:08.000Z,91
2022-09-15T05:46:35.000Z,91
2022-09-15T05:48:41.000Z,91
2022-09-15T05:50:08.000Z,91
2022-09-15T05:52:14.000Z,90
2022-09-15T05:53:40.000Z,91
2022-09-15T05:55:46.000Z,91
2022-09-15T05:57:13.000Z,91
2022-09-15T05:59:19.000Z,91
2022-09-15T06:00:45.000Z,91
2022-09-15T06:02:52.000Z,91
2022-09-15T06:04:18.000Z,91
2022-09-15T06:06:24.000Z,91
2022-09-15T06:07:51.000Z,91
2022-09-15T06:09:57.000Z,91
2022-09-15T06:11:23.000Z,91
2022-09-15T06:13:29.000Z,91
2022-09-15T06:14:56.000Z,92
2022-09-15T06:17:02.000Z,91
2022-09-15T06:18:28.000Z,92
2022-09-15T06:20:35.000Z,92
2022-09-15T06:23:26.000Z,92
2022-09-15T06:24:52.000Z,91
2022-09-15T06:26:59.000Z,92
2022-09-15T06:28:25.000Z,92
2022-09-15T06:30:31.000Z,92
2022-09-15T06:31:58.000Z,92
2022-09-15T06:34:04.000Z,92
2022-09-15T06:35:30.000Z,92
2022-09-15T06:37:37.000Z,92
2022-09-15T06:39:03.000Z,92
2022-09-15T06:41:09.000Z,92
2022-09-15T06:42:36.000Z,92
2022-09-15T06:44:42.000Z,92
2022-09-15T06:46:08.000Z,92
2022-09-15T06:48:15.000Z,92
2022-09-15T06:49:51.000Z,91
2022-09-15T06:51:57.000Z,92
2022-09-15T06:53:23.000Z,91
2022-09-15T06:55:30.000Z,91
2022-09-15T06:56:56.000Z,90
2022-09-15T06:59:02.000Z,90
2022-09-15T07:01:54.000Z,90
2022-09-15T07:03:20.000Z,90
2022-09-15T07:05:26.000Z,90
2022-09-15T07:06:53.000Z,90
2022-09-15T07:08:59.000Z,89
2022-09-15T07:10:26.000Z,89
2022-09-15T07:12:32.000Z,89
2022-09-15T07:13:58.000Z,88
2022-09-15T07:16:05.000Z,88
2022-09-15T07:17:31.000Z,88
2022-09-15T07:19:38.000Z,89
2022-09-15T07:21:04.000Z,90
2022-09-15T07:23:10.000Z,89
2022-09-15T07:24:37.000Z,88
2022-09-15T07:26:43.000Z,89
2022-09-15T07:28:09.000Z,87
2022-09-15T07:30:15.000Z,88
2022-09-15T07:31:42.000Z,88
2022-09-15T07:33:48.000Z,88
2022-09-15T07:35:15.000Z,87
2022-09-15T07:37:21.000Z,86
2022-09-15T07:40:12.000Z,86
2022-09-15T07:41:39.000Z,86
2022-09-15T07:43:45.000Z,87
2022-09-15T07:45:11.000Z,86
2022-09-15T07:47:17.000Z,86
2022-09-15T07:48:44.000Z,86
2022-09-15T07:50:50.000Z,85
2022-09-15T07:52:17.000Z,85
2022-09-15T07:54:23.000Z,86
2022-09-15T07:55:49.000Z,86
2022-09-15T07:57:56.000Z,86
2022-09-15T07:59:22.000Z,86
2022-09-15T08:01:28.000Z,85
2022-09-15T08:02:55.000Z,86
2022-09-15T08:05:01.000Z,86
2022-09-15T08:06:28.000Z,86
2022-09-15T08:08:34.000Z,85
2022-09-15T08:10:00.000Z,86
2022-09-15T08:12:06.000Z,87
2022-09-15T08:13:33.000Z,85
2022-09-15T08:15:39.000Z,84
2022-09-15T08:18:30.000Z,86
2022-09-15T08:19:57.000Z,86
2022-09-15T08:22:03.000Z,85
2022-09-15T08:23:29.000Z,84
2022-09-15T08:25:35.000Z,83
2022-09-15T08:27:02.000Z,82
2022-09-15T08:29:08.000Z,84
2022-09-15T08:30:34.000Z,83
2022-09-15T08:32:40.000Z,84
2022-09-15T08:34:07.000Z,83
2022-09-15T08:36:13.000Z,84
2022-09-15T08:37:40.000Z,84
2022-09-15T08:39:46.000Z,83
2022-09-15T08:41:12.000Z,84
2022-09-15T08:43:18.000Z,84
2022-09-15T08:44:45.000Z,85
2022-09-15T08:46:51.000Z,84
2022-09-15T08:48:18.000Z,82
2022-09-15T08:50:24.000Z,83
2022-09-15T08:51:50.000Z,82
2022-09-15T08:53:56.000Z,82
2022-09-15T08:56:48.000Z,82
2022-09-15T08:58:14.000Z,81
2022-09-15T09:00:20.000Z,79
2022-09-15T09:01:47.000Z,81
2022-09-15T09:03:53.000Z,78
2022-09-15T09:05:20.000Z,80
2022-09-15T09:07:26.000Z,79
2022-09-15T09:08:52.000Z,80
2022-09-15T09:10:58.000Z,80
2022-09-15T09:12:25.000Z,80
2022-09-15T09:14:31.000Z,80
2022-09-15T09:15:58.000Z,81
2022-09-15T09:18:04.000Z,81
2022-09-15T09:19:30.000Z,79
2022-09-15T09:21:38.000Z,80
2022-09-15T09:23:05.000Z,81
2022-09-15T09:25:11.000Z,80
2022-09-15T09:26:53.000Z,79
2022-09-15T09:28:59.000Z,79
2022-09-15T09:30:26.000Z,80
2022-09-15T09:32:32.000Z,78
2022-09-15T09:35:23.000Z,79
2022-09-15T09:36:50.000Z,78
2022-09-15T09:38:56.000Z,78
2022-09-15T09:40:22.000Z,78
2022-09-15T09:42:28.000Z,76
2022-09-15T09:43:55.000Z,77
2022-09-15T09:46:01.000Z,78
2022-09-15T09:47:28.000Z,79
2022-09-15T09:49:34.000Z,78
2022-09-15T09:51:00.000Z,78
2022-09-15T09:53:06.000Z,78
2022-09-15T09:54:33.000Z,77
2022-09-15T09:56:39.000Z,79
2022-09-15T09:58:06.000Z,79
2022-09-15T10:00:12.000Z,78
2022-09-15T10:01:38.000Z,77
2022-09-15T10:03:44.000Z,78
2022-09-15T10:05:11.000Z,77
2022-09-15T10:07:17.000Z,78
2022-09-15T10:08:44.000Z,77
2022-09-15T10:10:50.000Z,78
2022-09-15T10:13:41.000Z,76
2022-09-15T10:15:08.000Z,76
2022-09-15T10:17:14.000Z,76
2022-09-15T10:18:40.000Z,75
2022-09-15T10:20:46.000Z,74
2022-09-15T10:22:13.000Z,76
2022-09-15T10:24:19.000Z,74
2022-09-15T10:25:46.000Z,74
2022-09-15T10:28:06.000Z,72
2022-09-15T10:29:32.000Z,73
2022-09-15T10:31:38.000Z,75
2022-09-15T10:33:05.000Z,72
2022-09-15T10:35:11.000Z,74
2022-09-15T10:36:37.000Z,75
2022-09-15T10:38:43.000Z,76
2022-09-15T10:40:10.000Z,73
2022-09-15T10:42:16.000Z,72
2022-09-15T10:43:43.000Z,71
2022-09-15T10:45:49.000Z,74
2022-09-15T10:47:16.000Z,72
2022-09-15T10:49:22.000Z,73
2022-09-15T10:52:13.000Z,73
2022-09-15T10:53:40.000Z,74
2022-09-15T10:55:46.000Z,75
2022-09-15T10:57:19.000Z,75
2022-09-15T10:59:25.000Z,77
2022-09-15T11:00:52.000Z,74
2022-09-15T11:02:58.000Z,76
2022-09-15T11:04:25.000Z,74
2022-09-15T11:06:31.000Z,74
2022-09-15T11:07:57.000Z,74
2022-09-15T11:10:03.000Z,71
2022-09-15T11:11:30.000Z,70
2022-09-15T11:13:36.000Z,70
2022-09-15T11:15:02.000Z,71
2022-09-15T11:17:08.000Z,68
2022-09-15T11:18:35.000Z,72
2022-09-15T11:20:41.000Z,70
2022-09-15T11:22:08.000Z,72
2022-09-15T11:24:14.000Z,72
2022-09-15T11:25:40.000Z,69
2022-09-15T11:27:46.000Z,69
2022-09-15T11:30:37.000Z,72
2022-09-15T11:32:04.000Z,71
2022-09-15T11:34:10.000Z,72
2022-09-15T11:35:37.000Z,72
2022-09-15T11:37:43.000Z,73
2022-09-15T11:39:09.000Z,73
2022-09-15T11:41:15.000Z,71
2022-09-15T11:42:42.000Z,72
2022-09-15T11:44:48.000Z,71
2022-09-15T11:46:14.000Z,71
2022-09-15T11:48:21.000Z,70
2022-09-15T11:49:47.000Z,71
2022-09-15T11:51:53.000Z,70
2022-09-15T11:53:20.000Z,71
2022-09-15T11:55:26.000Z,74
2022-09-15T11:56:53.000Z,69
2022-09-15T11:58:59.000Z,69
2022-09-15T12:00:25.000Z,68
2022-09-15T12:02:31.000Z,68
2022-09-15T12:03:58.000Z,66
2022-09-15T12:06:04.000Z,67
2022-09-15T12:08:55.000Z,69
2022-09-15T12:10:22.000Z,69
2022-09-15T12:12:28.000Z,69
2022-09-15T12:13:57.000Z,70
2022-09-15T12:16:03.000Z,69
2022-09-15T12:17:30.000Z,71
2022-09-15T12:19:36.000Z,70
2022-09-15T12:21:03.000Z,71
2022-09-15T12:23:09.000Z,73
2022-09-15T12:24:35.000Z,71
2022-09-15T12:26:41.000Z,72
2022-09-15T12:28:08.000Z,69
2022-09-15T12:30:14.000Z,70
2022-09-15T12:31:41.000Z,67
2022-09-15T12:33:47.000Z,69
2022-09-15T12:35:13.000Z,67
2022-09-15T12:37:20.000Z,62
2022-09-15T12:38:46.000Z,64
2022-09-15T12:40:52.000Z,61
2022-09-15T12:42:19.000Z,59
2022-09-15T12:44:25.000Z,64
2022-09-15T12:47:16.000Z,64
2022-09-15T12:48:43.000Z,63
2022-09-15T12:50:53.000Z,64
2022-09-15T12:52:20.000Z,62
2022-09-15T12:54:26.000Z,64
2022-09-15T12:55:52.000Z,65
2022-09-15T12:57:58.000Z,65
2022-09-15T12:59:25.000Z,63
2022-09-15T13:01:31.000Z,63
2022-09-15T13:02:57.000Z,63
2022-09-15T13:05:04.000Z,64
2022-09-15T13:06:30.000Z,63
2022-09-15T13:08:36.000Z,62
2022-09-15T13:10:03.000Z,65
2022-09-15T13:12:09.000Z,65
2022-09-15T13:13:36.000Z,66
2022-09-15T13:15:42.000Z,63
2022-09-15T13:17:08.000Z,60
2022-09-15T13:19:14.000Z,58
2022-09-15T13:20:41.000Z,60
2022-09-15T13:22:47.000Z,59
2022-09-15T13:25:38.000Z,57
2022-09-15T13:27:05.000Z,61
2022-09-15T13:29:11.000Z,59
2022-09-15T13:30:38.000Z,60
2022-09-15T13:32:44.000Z,61
2022-09-15T13:38:43.000Z,58
2022-09-15T13:40:49.000Z,59
2022-09-15T13:42:15.000Z,60
2022-09-15T13:44:22.000Z,58
2022-09-15T13:45:48.000Z,59
2022-09-15T13:47:54.000Z,58
2022-09-15T13:49:21.000Z,58
2022-09-15T13:51:27.000Z,59
2022-09-15T13:52:54.000Z,60
2022-09-15T13:55:00.000Z,56
2022-09-15T13:56:26.000Z,60
2022-09-15T13:58:32.000Z,57
2022-09-15T14:00:29.000Z,57
2022-09-15T14:02:35.000Z,56
2022-09-15T14:05:27.000Z,55
2022-09-15T14:06:53.000Z,56
2022-09-15T14:09:06.000Z,59
2022-09-15T14:10:32.000Z,59
2022-09-15T14:12:38.000Z,59
2022-09-15T14:14:05.000Z,57
2022-09-15T14:16:11.000Z,56
2022-09-15T14:17:39.000Z,56
2022-09-15T14:19:45.000Z,57
2022-09-15T14:21:11.000Z,56
2022-09-15T14:23:17.000Z,57
2022-09-15T14:24:44.000Z,57
2022-09-15T14:26:50.000Z,55
2022-09-15T14:28:16.000Z,56
2022-09-15T14:30:23.000Z,55
2022-09-15T14:31:49.000Z,58
2022-09-15T14:33:55.000Z,59
2022-09-15T14:35:22.000Z,56
2022-09-15T14:37:28.000Z,58
2022-09-15T14:38:55.000Z,60
2022-09-15T14:41:01.000Z,58
2022-09-15T14:43:52.000Z,59
2022-09-15T14:47:55.000Z,59
2022-09-15T14:49:21.000Z,60
2022-09-15T14:51:27.000Z,60
2022-09-15T14:52:54.000Z,61
2022-09-15T14:55:00.000Z,60
2022-09-15T14:56:26.000Z,61
2022-09-15T14:58:33.000Z,60
2022-09-15T14:59:59.000Z,62
2022-09-15T15:02:05.000Z,60
2022-09-15T15:03:32.000Z,60
2022-09-15T15:05:38.000Z,60
2022-09-15T15:07:04.000Z,62
2022-09-15T15:09:10.000Z,63
2022-09-15T15:10:37.000Z,62
2022-09-15T15:12:43.000Z,62
2022-09-15T15:14:10.000Z,63
2022-09-15T15:16:16.000Z,61
2022-09-15T15:17:42.000Z,62
2022-09-15T15:19:49.000Z,60
2022-09-15T15:22:40.000Z,63
2022-09-15T15:24:06.000Z,63
2022-09-15T15:26:13.000Z,63
2022-09-15T15:27:39.000Z,63
2022-09-15T15:29:45.000Z,63
2022-09-15T15:31:12.000Z,64
2022-09-15T15:33:18.000Z,64
2022-09-15T15:34:46.000Z,65
2022-09-15T15:36:52.000Z,64
2022-09-15T15:38:18.000Z,65
2022-09-15T15:40:24.000Z,62
2022-09-15T15:41:51.000Z,63
2022-09-15T15:43:57.000Z,63
2022-09-15T15:45:23.000Z,64
2022-09-15T15:47:30.000Z,64
2022-09-15T15:48:56.000Z,65
2022-09-15T15:51:02.000Z,65
2022-09-15T15:52:29.000Z,64
2022-09-15T15:54:35.000Z,65
2022-09-15T15:56:01.000Z,64
2022-09-15T15:58:08.000Z,65
2022-09-15T16:00:59.000Z,66
2022-09-15T16:02:25.000Z,66
2022-09-15T16:04:32.000Z,68
2022-09-15T16:05:58.000Z,66
2022-09-15T16:08:04.000Z,66
2022-09-15T16:09:31.000Z,66
2022-09-15T16:11:37.000Z,65
2022-09-15T16:13:03.000Z,68
2022-09-15T16:15:09.000Z,68
2022-09-15T16:16:36.000Z,67
2022-09-15T16:18:42.000Z,68
2022-09-15T16:20:09.000Z,66
2022-09-15T16:22:15.000Z,67
2022-09-15T16:23:41.000Z,68
2022-09-15T16:25:47.000Z,68
2022-09-15T16:27:14.000Z,68
2022-09-15T16:29:20.000Z,67
2022-09-15T16:30:46.000Z,68
2022-09-15T16:32:53.000Z,69
2022-09-15T16:34:19.000Z,68
2022-09-15T16:36:25.000Z,68
2022-09-15T16:39:16.000Z,69
2022-09-15T16:40:43.000Z,68
2022-09-15T16:42:49.000Z,69
2022-09-15T16:44:15.000Z,69
2022-09-15T16:46:22.000Z,68
2022-09-15T16:47:48.000Z,70
2022-09-15T16:49:54.000Z,69
2022-09-15T16:51:21.000Z,70
2022-09-15T16:53:37.000Z,70
2022-09-15T16:55:03.000Z,71
2022-09-15T16:57:09.000Z,69
2022-09-15T16:58:36.000Z,71
2022-09-15T17:00:42.000Z,70
2022-09-15T17:02:09.000Z,70
2022-09-15T17:04:15.000Z,70
2022-09-15T17:05:41.000Z,70
2022-09-15T17:07:53.000Z,71
2022-09-15T17:09:20.000Z,70
2022-09-15T17:11:26.000Z,70
2022-09-15T17:12:52.000Z,72
2022-09-15T17:14:59.000Z,78
2022-09-15T17:17:50.000Z,79
2022-09-15T17:19:16.000Z,79
2022-09-15T17:21:23.000Z,79
2022-09-15T17:22:49.000Z,80
2022-09-15T17:24:55.000Z,78
2022-09-15T17:26:22.000Z,80
2022-09-15T17:28:28.000Z,80
2022-09-15T17:29:54.000Z,79
2022-09-15T17:32:00.000Z,80
2022-09-15T17:33:27.000Z,79
2022-09-15T17:35:33.000Z,78
2022-09-15T17:37:00.000Z,76
2022-09-15T17:39:06.000Z,75
2022-09-15T17:40:32.000Z,74
2022-09-15T17:42:38.000Z,74
2022-09-15T17:44:05.000Z,73
2022-09-15T17:46:11.000Z,74
2022-09-15T17:47:38.000Z,74
2022-09-15T17:49:44.000Z,74
2022-09-15T17:51:10.000Z,74
2022-09-15T17:53:17.000Z,75
2022-09-15T17:56:08.000Z,75
2022-09-15T17:57:34.000Z,75
2022-09-15T17:59:40.000Z,75
2022-09-15T18:01:07.000Z,75
2022-09-15T18:03:13.000Z,75
2022-09-15T18:04:40.000Z,75
2022-09-15T18:06:46.000Z,75
2022-09-15T18:08:12.000Z,75
2022-09-15T18:10:18.000Z,76
2022-09-15T18:11:45.000Z,77
2022-09-15T18:13:51.000Z,76
2022-09-15T18:15:17.000Z,76
2022-09-15T18:17:23.000Z,77
2022-09-15T18:18:50.000Z,76
2022-09-15T18:20:56.000Z,76
2022-09-15T18:22:22.000Z,77
2022-09-15T18:24:29.000Z,77
2022-09-15T18:25:55.000Z,76
2022-09-15T18:28:01.000Z,76
2022-09-15T18:29:28.000Z,76
2022-09-15T18:31:34.000Z,76
2022-09-15T18:34:25.000Z,76
2022-09-15T18:35:52.000Z,76
2022-09-15T18:37:58.000Z,77
2022-09-15T18:39:24.000Z,77
2022-09-15T18:41:30.000Z,76
2022-09-15T18:42:57.000Z,77
2022-09-15T18:45:03.000Z,76
2022-09-15T18:46:30.000Z,77
2022-09-15T18:48:36.000Z,76
2022-09-15T18:50:03.000Z,76
2022-09-15T18:52:09.000Z,76
2022-09-15T18:53:35.000Z,76
2022-09-15T18:55:41.000Z,76
2022-09-15T18:57:08.000Z,77
2022-09-15T18:59:14.000Z,75
2022-09-15T19:00:44.000Z,77
2022-09-15T19:02:50.000Z,76
2022-09-15T19:04:16.000Z,75
2022-09-15T19:06:22.000Z,76
2022-09-15T19:07:49.000Z,76
2022-09-15T19:09:55.000Z,76
2022-09-15T19:12:47.000Z,76
2022-09-15T19:14:14.000Z,77
2022-09-15T19:16:20.000Z,76
2022-09-15T19:17:52.000Z,77
2022-09-15T19:19:58.000Z,77
2022-09-15T19:21:24.000Z,76
2022-09-15T19:23:33.000Z,77
2022-09-15T19:24:59.000Z,77
2022-09-15T19:27:06.000Z,76
2022-09-15T19:28:32.000Z,77
2022-09-15T19:30:38.000Z,76
2022-09-15T19:32:05.000Z,76
2022-09-15T19:34:11.000Z,77
2022-09-15T19:35:37.000Z,77
2022-09-15T19:37:43.000Z,76
2022-09-15T19:39:10.000Z,77
2022-09-15T19:41:16.000Z,77
2022-09-15T19:42:42.000Z,77
2022-09-15T19:44:48.000Z,76
2022-09-15T19:46:15.000Z,77
2022-09-15T19:48:21.000Z,76
2022-09-15T19:51:12.000Z,77
2022-09-15T19:52:39.000Z,77
2022-09-15T19:54:45.000Z,76
2022-09-15T19:56:12.000Z,76
2022-09-15T19:58:18.000Z,77
2022-09-15T19:59:44.000Z,76
2022-09-15T20:01:51.000Z,76
2022-09-15T20:03:17.000Z,76
2022-09-15T20:05:23.000Z,76
2022-09-15T20:06:50.000Z,77
2022-09-15T20:08:56.000Z,76
2022-09-15T20:10:23.000Z,75
2022-09-15T20:12:29.000Z,75
2022-09-15T20:13:55.000Z,75
2022-09-15T20:16:01.000Z,75
2022-09-15T20:17:28.000Z,75
2022-09-15T20:19:34.000Z,76
2022-09-15T20:21:01.000Z,75
2022-09-15T20:23:07.000Z,75
2022-09-15T20:24:33.000Z,75
2022-09-15T20:26:39.000Z,75
2022-09-15T20:29:30.000Z,75
2022-09-15T20:30:57.000Z,75
2022-09-15T20:33:03.000Z,74
2022-09-15T20:34:30.000Z,75
2022-09-15T20:36:36.000Z,75
2022-09-15T20:38:02.000Z,75
2022-09-15T20:40:08.000Z,75
2022-09-15T20:41:35.000Z,76
2022-09-15T20:43:41.000Z,75
2022-09-15T20:45:08.000Z,75
2022-09-15T20:47:14.000Z,76
2022-09-15T20:48:40.000Z,75
2022-09-15T20:50:46.000Z,76
2022-09-15T20:52:13.000Z,75
2022-09-15T20:54:19.000Z,75
2022-09-15T20:55:45.000Z,75
2022-09-15T20:57:51.000Z,76
2022-09-15T20:59:18.000Z,75
2022-09-15T21:01:24.000Z,76
2022-09-15T21:02:51.000Z,76
2022-09-15T21:04:57.000Z,75
2022-09-15T21:07:48.000Z,75
2022-09-15T21:09:15.000Z,76
2022-09-15T21:11:21.000Z,76
2022-09-15T21:12:47.000Z,76
2022-09-15T21:14:54.000Z,76
2022-09-15T21:16:20.000Z,76
2022-09-15T21:18:26.000Z,76
2022-09-15T21:19:53.000Z,76
2022-09-15T21:21:59.000Z,76
2022-09-15T21:23:26.000Z,76
2022-09-15T21:25:32.000Z,77
2022-09-15T21:26:58.000Z,76
2022-09-15T21:29:04.000Z,76
2022-09-15T21:30:31.000Z,77
2022-09-15T21:32:37.000Z,77
2022-09-15T21:34:03.000Z,77
2022-09-15T21:36:09.000Z,77
2022-09-15T21:37:36.000Z,77
2022-09-15T21:39:42.000Z,77
2022-09-15T21:41:08.000Z,77
2022-09-15T21:43:14.000Z,77
2022-09-15T21:46:06.000Z,77
2022-09-15T21:47:32.000Z,77
2022-09-15T21:49:38.000Z,77
2022-09-15T21:51:05.000Z,77
2022-09-15T21:53:11.000Z,77
2022-09-15T21:54:37.000Z,78
2022-09-15T21:56:44.000Z,78
2022-09-15T21:58:10.000Z,78
2022-09-15T22:00:16.000Z,78
2022-09-15T22:01:43.000Z,78
2022-09-15T22:03:49.000Z,78
2022-09-15T22:05:16.000Z,77
2022-09-15T22:07:22.000Z,77
2022-09-15T22:08:48.000Z,78
2022-09-15T22:10:54.000Z,77
2022-09-15T22:12:21.000Z,77
2022-09-15T22:14:27.000Z,78
2022-09-15T22:15:53.000Z,77
2022-09-15T22:17:59.000Z,78
2022-09-15T22:19:26.000Z,77
2022-09-15T22:21:32.000Z,77
2022-09-15T22:24:23.000Z,77
2022-09-15T22:25:50.000Z,78
2022-09-15T22:27:56.000Z,78
2022-09-15T22:29:22.000Z,78
2022-09-15T22:31:28.000Z,78
2022-09-15T22:32:55.000Z,79
2022-09-15T22:35:01.000Z,79
2022-09-15T22:36:28.000Z,79
2022-09-15T22:38:36.000Z,79
2022-09-15T22:40:02.000Z,79
2022-09-15T22:42:09.000Z,79
2022-09-15T22:43:35.000Z,79
2022-09-15T22:45:41.000Z,79
2022-09-15T22:47:08.000Z,79
2022-09-15T22:49:14.000Z,79
2022-09-15T22:50:40.000Z,80
2022-09-15T22:52:47.000Z,80
2022-09-15T22:54:13.000Z,80
2022-09-15T22:56:19.000Z,80
2022-09-15T22:57:46.000Z,80
2022-09-15T22:59:52.000Z,80
2022-09-15T23:02:43.000Z,80
2022-09-15T23:04:10.000Z,81
2022-09-15T23:06:16.000Z,81
2022-09-15T23:07:42.000Z,81
2022-09-15T23:09:48.000Z,81
2022-09-15T23:11:15.000Z,81
2022-09-15T23:13:21.000Z,81
2022-09-15T23:14:47.000Z,81
2022-09-15T23:16:54.000Z,81
2022-09-15T23:18:20.000Z,81
2022-09-15T23:20:26.000Z,81
2022-09-15T23:21:53.000Z,82
2022-09-15T23:23:59.000Z,81
2022-09-15T23:25:25.000Z,81
2022-09-15T23:27:31.000Z,81
2022-09-15T23:28:58.000Z,81
2022-09-15T23:31:04.000Z,81
2022-09-15T23:32:30.000Z,82
2022-09-15T23:34:36.000Z,82
2022-09-15T23:36:03.000Z,82
2022-09-15T23:38:09.000Z,82
2022-09-15T23:41:00.000Z,82
2022-09-15T23:42:27.000Z,82
2022-09-15T23:44:33.000Z,82
2022-09-15T23:45:59.000Z,82
2022-09-15T23:48:05.000Z,83
2022-09-15T23:49:32.000Z,83
2022-09-15T23:51:38.000Z,83
2022-09-15T23:53:04.000Z,83
2022-09-15T23:55:10.000Z,82
2022-09-15T23:56:37.000Z,82
2022-09-15T23:58:43.000Z,82
